Impacts METAR Board
IDs:

KPHX - Phoenix/Sky Harbor, AZ, US

Updated at: 2100 UTC 06 Dec 2019
Potential Impact None Slight Moderate High
Time 06/09Z 06/10Z 06/11Z 06/12Z 06/13Z 06/14Z 06/15Z 06/16Z 06/17Z 06/18Z 06/19Z 06/20Z 06/21Z
Temp55 55 54 54 55 54 56 57 61 65 67 68 70
Dewpt49 48 48 47 46 46 45 46 45 44 44 44 44
Altim30.13 30.13 30.12 30.12 30.13 30.15 30.17 30.19 30.20 30.20 30.19 30.15 30.12
VIS10 10 10 10 10 10 10 10 10 10 10 10 10
CIG200 200 250 200 250 250 240 240 210 250 220 250 250
CoverOVCOVCBKNBKNBKNBKNBKNBKNBKNBKNBKNBKNBKN
FltCatVFRVFRVFRVFRVFRVFRVFRVFRVFRVFRVFRVFRVFR
WX--------------------------
WDir0090150110080010070808080
WSpd0 0 4 3 4 0 3 0 5 9 8 7 7
WGst-- -- -- -- -- -- -- -- -- -- -- -- --
Raw hourly METARs
KPHX 060851Z 00000KT 10SM BKN200 OVC250 13/09 A3013 RMK AO2 SLP193 T01280094 51003
KPHX 060951Z 00000KT 10SM BKN200 OVC250 13/09 A3013 RMK AO2 SLP194 T01280089
KPHX 061051Z 09004KT 10SM SCT200 BKN250 12/09 A3012 RMK AO2 SLP192 T01220089
KPHX 061151Z 15003KT 10SM BKN200 BKN250 12/08 A3012 RMK AO2 SLP190 T01220083 10150 20117 58003
KPHX 061251Z 11004KT 10SM FEW200 BKN250 13/08 A3013 RMK AO2 SLP193 T01280078
KPHX 061351Z 00000KT 10SM BKN250 12/08 A3015 RMK AO2 SLP203 T01220078
KPHX 061451Z 08003KT 10SM SCT210 BKN240 13/07 A3017 RMK AO2 SLP209 T01330072 53017
KPHX 061551Z 00000KT 10SM SCT210 BKN240 14/08 A3019 RMK AO2 SLP217 T01390078
KPHX 061651Z 10005KT 10SM BKN210 BKN240 16/07 A3020 RMK AO2 SLP220 T01610072
KPHX 061751Z 07009KT 10SM SCT200 BKN250 18/07 A3020 RMK AO2 SLP219 T01830067 10183 20122 50010
KPHX 061851Z 08008KT 10SM SCT190 BKN220 BKN250 19/07 A3019 RMK AO2 SLP213 T01940067
KPHX 061951Z 08007KT 10SM FEW190 SCT220 BKN250 20/07 A3015 RMK AO2 SLP201 VIRGA DSNT S T02000067
KPHX 062051Z 08007KT 10SM FEW180 SCT220 BKN250 21/07 A3012 RMK AO2 SLP192 T02110067 58026



Page loaded:  21:09 UTC  |   01:09 PM Pacific  |   02:09 PM Mountain  |   03:09 PM Central  |   04:09 PM Eastern

 

ADVISORIES

FORECASTS

FORECASTS

OBSERVATIONS

USER TOOLS

ABOUT US